createdAt,value
2018-07-03T00:01:08.953Z,0.20
2018-07-03T00:03:13.407Z,0.40
2018-07-03T00:05:17.897Z,0.30
2018-07-03T00:07:22.343Z,0.20
2018-07-03T00:09:27.613Z,0.20
2018-07-03T00:11:32.047Z,0.30
2018-07-03T00:13:42.164Z,0.20
2018-07-03T00:15:46.592Z,0.20
2018-07-03T00:17:51.035Z,0.40
2018-07-03T00:19:55.496Z,0.30
2018-07-03T00:22:00.051Z,0.20
2018-07-03T00:24:04.575Z,0.20
2018-07-03T00:26:09.008Z,0.30
2018-07-03T00:28:13.501Z,0.23
2018-07-03T00:30:17.957Z,0.20
2018-07-03T00:32:22.422Z,0.40
2018-07-03T00:34:27.793Z,0.30
2018-07-03T00:36:32.232Z,0.40
2018-07-03T00:38:36.654Z,0.40
2018-07-03T00:40:41.108Z,0.40
2018-07-03T00:42:45.583Z,0.50
2018-07-03T00:44:50.048Z,0.20
2018-07-03T00:46:54.450Z,0.30
2018-07-03T00:48:58.964Z,0.30
2018-07-03T00:51:03.840Z,0.30
2018-07-03T00:53:08.518Z,0.40
2018-07-03T00:55:13.223Z,0.27
2018-07-03T00:57:17.643Z,0.33
2018-07-03T00:59:22.075Z,0.30
2018-07-03T01:01:27.406Z,0.20
2018-07-03T01:03:32.258Z,0.20
2018-07-03T01:05:37.478Z,0.20
2018-07-03T01:07:42.173Z,0.30
2018-07-03T01:09:49.031Z,0.35
2018-07-03T01:11:54.039Z,0.15
2018-07-03T01:13:59.684Z,0.40
2018-07-03T01:16:04.659Z,0.30
2018-07-03T01:18:09.326Z,0.20
2018-07-03T01:20:13.834Z,0.30
2018-07-03T01:22:19.345Z,0.40
2018-07-03T01:24:24.348Z,0.20
2018-07-03T01:26:29.393Z,0.20
2018-07-03T01:28:34.256Z,0.30
2018-07-03T01:30:39.476Z,0.40
2018-07-03T01:32:45.091Z,0.20
2018-07-03T01:34:50.061Z,0.20
2018-07-03T01:36:54.837Z,0.30
2018-07-03T01:38:59.596Z,0.20
2018-07-03T01:41:04.199Z,0.20
2018-07-03T01:43:10.913Z,0.45
2018-07-03T01:45:16.341Z,0.30
2018-07-03T01:47:22.429Z,0.30
2018-07-03T01:49:28.422Z,0.20
2018-07-03T01:51:33.666Z,0.30
2018-07-03T01:53:38.453Z,0.20
2018-07-03T01:55:43.643Z,0.30
2018-07-03T01:57:48.370Z,0.30
2018-07-03T01:59:52.854Z,0.30
2018-07-03T02:01:57.362Z,0.30
2018-07-03T02:04:01.860Z,0.20
2018-07-03T02:06:06.585Z,0.20
2018-07-03T02:08:11.500Z,0.30
2018-07-03T02:10:15.991Z,0.20
2018-07-03T02:12:20.531Z,0.30
2018-07-03T02:14:25.014Z,0.40
2018-07-03T02:16:30.131Z,0.20
2018-07-03T02:18:34.733Z,0.20
2018-07-03T02:20:39.476Z,0.20
2018-07-03T02:22:44.161Z,0.30
2018-07-03T02:24:48.833Z,0.30
2018-07-03T02:26:53.281Z,0.20
2018-07-03T02:28:58.026Z,0.30
2018-07-03T02:31:02.585Z,0.23
2018-07-03T02:33:07.087Z,0.20
2018-07-03T02:35:11.817Z,0.20
2018-07-03T02:37:16.257Z,0.40
2018-07-03T02:39:20.687Z,0.40
2018-07-03T02:41:25.169Z,0.33
2018-07-03T02:43:30.226Z,0.30
2018-07-03T02:45:35.305Z,0.47
2018-07-03T02:47:39.724Z,0.23
2018-07-03T02:49:44.209Z,0.40
2018-07-03T02:51:48.701Z,0.20
2018-07-03T02:53:53.156Z,0.20
2018-07-03T02:55:57.972Z,0.30
2018-07-03T02:58:02.536Z,0.40
2018-07-03T03:00:07.645Z,0.30
2018-07-03T03:02:12.166Z,0.27
2018-07-03T03:04:16.626Z,0.23
2018-07-03T03:06:20.768Z,0.30
2018-07-03T03:08:26.137Z,0.30
2018-07-03T03:10:30.647Z,0.30
2018-07-03T03:12:35.130Z,0.40
2018-07-03T03:14:39.558Z,0.40
2018-07-03T03:16:44.006Z,0.30
2018-07-03T03:18:48.496Z,0.30
2018-07-03T03:20:52.979Z,0.30
2018-07-03T03:22:57.478Z,0.20
2018-07-03T03:25:01.966Z,0.30
2018-07-03T03:27:06.493Z,0.30
2018-07-03T03:29:10.930Z,0.20
2018-07-03T03:31:15.431Z,0.30
2018-07-03T03:33:19.914Z,0.40
2018-07-03T03:35:24.434Z,0.20
2018-07-03T03:37:28.946Z,0.40
2018-07-03T03:39:33.359Z,0.30
2018-07-03T03:41:37.946Z,0.20
2018-07-03T03:43:42.449Z,0.30
2018-07-03T03:45:46.885Z,0.30
2018-07-03T03:47:51.352Z,0.30
2018-07-03T03:49:55.806Z,0.30
2018-07-03T03:52:00.266Z,0.27
2018-07-03T03:54:04.719Z,0.40
2018-07-03T03:56:09.249Z,0.40
2018-07-03T03:58:13.740Z,0.30
2018-07-03T04:00:18.245Z,0.25
2018-07-03T04:02:22.751Z,0.37
2018-07-03T04:04:27.422Z,0.23
2018-07-03T04:06:32.107Z,0.50
2018-07-03T04:08:36.998Z,0.30
2018-07-03T04:10:42.385Z,0.37
2018-07-03T04:12:46.902Z,0.30
2018-07-03T04:14:51.680Z,0.40
2018-07-03T04:16:56.393Z,0.30
2018-07-03T04:19:01.257Z,0.50
2018-07-03T04:21:07.086Z,0.30
2018-07-03T04:23:11.873Z,0.30
2018-07-03T04:25:16.506Z,0.30
2018-07-03T04:27:21.148Z,0.70
2018-07-03T04:29:26.892Z,0.60
2018-07-03T04:31:32.072Z,0.53
2018-07-03T04:33:36.646Z,0.57
2018-07-03T04:35:44.678Z,0.65
2018-07-03T04:37:49.894Z,0.60
2018-07-03T04:39:54.375Z,0.40
2018-07-03T04:41:58.997Z,0.50
2018-07-03T04:44:03.681Z,0.73
2018-07-03T04:46:08.208Z,0.37
2018-07-03T04:48:12.820Z,0.40
2018-07-03T04:50:17.405Z,0.40
2018-07-03T04:52:22.129Z,0.50
2018-07-03T04:54:26.833Z,0.60
2018-07-03T04:56:32.121Z,0.50
2018-07-03T04:58:36.607Z,0.70
2018-07-03T05:00:41.090Z,0.57
2018-07-03T05:02:45.690Z,0.72
2018-07-03T05:04:50.157Z,0.60
2018-07-03T05:06:54.904Z,0.53
2018-07-03T05:08:59.942Z,0.50
2018-07-03T05:11:07.181Z,0.60
2018-07-03T05:13:12.340Z,0.80
2018-07-03T05:15:16.753Z,0.70
2018-07-03T05:17:22.209Z,0.50
2018-07-03T05:19:28.870Z,0.68
2018-07-03T05:21:33.406Z,0.50
2018-07-03T05:23:37.864Z,0.60
2018-07-03T05:25:42.346Z,0.80
2018-07-03T05:27:46.902Z,0.50
2018-07-03T05:29:52.474Z,1.07
2018-07-03T05:31:57.015Z,0.78
2018-07-03T05:34:01.565Z,0.77
2018-07-03T05:36:06.155Z,0.50
2018-07-03T05:38:10.597Z,0.63
2018-07-03T05:40:15.029Z,0.70
2018-07-03T05:42:19.512Z,0.90
2018-07-03T05:44:24.039Z,0.90
2018-07-03T05:46:28.510Z,1.30
2018-07-03T05:48:33.048Z,0.60
2018-07-03T05:50:37.189Z,0.60
2018-07-03T05:52:41.696Z,0.63
2018-07-03T05:54:46.109Z,0.68
2018-07-03T05:56:50.527Z,0.70
2018-07-03T05:58:55.090Z,0.63
2018-07-03T06:00:59.559Z,0.60
2018-07-03T06:03:04.085Z,0.60
2018-07-03T06:05:08.552Z,0.70
2018-07-03T06:07:13.035Z,0.70
2018-07-03T06:09:17.565Z,0.42
2018-07-03T06:11:22.020Z,0.70
2018-07-03T06:13:26.504Z,0.53
2018-07-03T06:15:30.950Z,0.93
2018-07-03T06:17:35.531Z,0.63
2018-07-03T06:19:39.952Z,0.50
2018-07-03T06:21:44.474Z,0.50
2018-07-03T06:23:49.087Z,0.42
2018-07-03T06:25:53.880Z,0.60
2018-07-03T06:27:58.617Z,0.50
2018-07-03T06:30:03.174Z,0.40
2018-07-03T06:32:08.384Z,0.60
2018-07-03T06:34:14.012Z,0.53
2018-07-03T06:36:18.454Z,0.42
2018-07-03T06:38:22.906Z,0.45
2018-07-03T06:40:27.359Z,0.70
2018-07-03T06:42:31.802Z,0.70
2018-07-03T06:44:36.442Z,0.90
2018-07-03T06:46:40.905Z,0.60
2018-07-03T06:48:45.418Z,1.02
2018-07-03T06:50:49.843Z,0.80
2018-07-03T06:52:54.095Z,0.90
2018-07-03T06:54:58.532Z,0.97
2018-07-03T06:57:02.988Z,0.70
2018-07-03T06:59:07.530Z,0.50
2018-07-03T07:01:12.043Z,0.67
2018-07-03T07:03:16.553Z,0.50
2018-07-03T07:05:21.016Z,0.50
2018-07-03T07:07:25.503Z,0.43
2018-07-03T07:09:29.983Z,0.40
2018-07-03T07:11:34.531Z,0.40
2018-07-03T07:13:39.112Z,0.60
2018-07-03T07:15:43.803Z,0.40
2018-07-03T07:17:48.284Z,0.40
2018-07-03T07:19:53.889Z,0.47
2018-07-03T07:21:58.351Z,0.50
2018-07-03T07:24:03.138Z,0.50
2018-07-03T07:26:07.757Z,0.40
2018-07-03T07:28:12.158Z,0.97
2018-07-03T07:30:16.819Z,0.50
2018-07-03T07:32:23.228Z,0.60
2018-07-03T07:34:29.952Z,0.53
2018-07-03T07:36:37.700Z,0.30
2018-07-03T07:38:44.745Z,0.30
2018-07-03T07:40:51.306Z,0.50
2018-07-03T07:42:58.681Z,0.40
2018-07-03T07:45:03.184Z,0.40
2018-07-03T07:47:10.310Z,0.37
2018-07-03T07:49:16.853Z,0.30
2018-07-03T07:51:21.346Z,0.37
2018-07-03T07:53:25.767Z,0.30
2018-07-03T07:55:30.529Z,0.23
2018-07-03T07:57:35.015Z,0.30
2018-07-03T07:59:39.458Z,0.30
2018-07-03T08:01:43.902Z,0.27
2018-07-03T08:03:48.396Z,0.20
2018-07-03T08:05:52.886Z,0.30
2018-07-03T08:07:57.308Z,0.27
2018-07-03T08:10:01.779Z,0.40
2018-07-03T08:12:06.432Z,0.40
2018-07-03T08:14:10.886Z,0.20
2018-07-03T08:16:15.358Z,0.33
2018-07-03T08:18:20.234Z,0.30
2018-07-03T08:20:24.862Z,0.30
2018-07-03T08:22:29.456Z,0.30
2018-07-03T08:24:34.916Z,0.30
2018-07-03T08:26:39.460Z,0.10
2018-07-03T08:28:44.081Z,0.30
2018-07-03T08:30:48.564Z,0.30
2018-07-03T08:32:53.146Z,0.30
2018-07-03T08:34:57.644Z,0.20
2018-07-03T08:37:02.344Z,0.40
2018-07-03T08:39:09.889Z,0.20
2018-07-03T08:41:15.078Z,0.17
2018-07-03T08:43:19.547Z,0.30
2018-07-03T08:45:24.217Z,0.30
2018-07-03T08:47:28.675Z,0.30
2018-07-03T08:49:33.695Z,0.30
2018-07-03T08:51:38.604Z,0.20
2018-07-03T08:53:43.048Z,0.23
2018-07-03T08:55:47.593Z,0.20
2018-07-03T08:57:52.086Z,0.27
2018-07-03T08:59:56.573Z,0.40
2018-07-03T09:02:01.126Z,0.20
2018-07-03T09:04:05.690Z,0.20
2018-07-03T09:06:10.247Z,0.30
2018-07-03T09:08:15.359Z,0.55
2018-07-03T09:10:19.838Z,0.40
2018-07-03T09:12:24.353Z,0.23
2018-07-03T09:14:28.892Z,0.40
2018-07-03T09:16:33.391Z,0.50
2018-07-03T09:18:37.894Z,0.30
2018-07-03T09:20:42.379Z,0.30
2018-07-03T09:22:46.946Z,0.47
2018-07-03T09:24:51.502Z,0.20
2018-07-03T09:26:55.983Z,0.30
2018-07-03T09:29:00.499Z,0.36
2018-07-03T09:31:04.968Z,0.40
2018-07-03T09:33:09.426Z,0.40
2018-07-03T09:35:13.914Z,0.30
2018-07-03T09:37:19.020Z,0.50
2018-07-03T09:39:23.550Z,0.60
2018-07-03T09:41:28.016Z,0.40
2018-07-03T09:43:32.611Z,0.40
2018-07-03T09:45:37.124Z,0.40
2018-07-03T09:47:41.590Z,0.50
2018-07-03T09:49:46.058Z,0.33
2018-07-03T09:51:50.558Z,0.50
2018-07-03T09:53:56.175Z,0.62
2018-07-03T09:56:00.751Z,0.40
2018-07-03T09:58:05.223Z,0.30
2018-07-03T10:00:09.802Z,0.53
2018-07-03T10:02:14.243Z,0.50
2018-07-03T10:04:18.786Z,0.47
2018-07-03T10:06:23.318Z,0.50
2018-07-03T10:08:30.204Z,0.40
2018-07-03T10:10:34.702Z,0.53
2018-07-03T10:12:38.859Z,0.50
2018-07-03T10:14:43.454Z,0.40
2018-07-03T10:16:47.994Z,0.30
2018-07-03T10:18:52.502Z,0.63
2018-07-03T10:20:56.986Z,0.40
2018-07-03T10:23:04.190Z,0.60
2018-07-03T10:25:08.672Z,0.40
2018-07-03T10:27:13.179Z,0.60
2018-07-03T10:29:18.611Z,0.30
2018-07-03T10:31:28.064Z,0.72
2018-07-03T10:33:37.889Z,0.50
2018-07-03T10:35:45.475Z,0.60
2018-07-03T10:37:49.943Z,0.55
2018-07-03T10:39:54.423Z,0.42
2018-07-03T10:42:00.580Z,0.30
2018-07-03T10:44:05.114Z,0.55
2018-07-03T10:46:09.797Z,0.40
2018-07-03T10:48:14.263Z,0.53
2018-07-03T10:50:18.743Z,0.53
2018-07-03T10:52:23.267Z,0.50
2018-07-03T10:54:27.691Z,0.33
2018-07-03T10:56:32.186Z,0.40
2018-07-03T10:58:36.743Z,0.50
2018-07-03T11:00:41.356Z,0.60
2018-07-03T11:02:45.881Z,0.40
2018-07-03T11:04:51.332Z,0.30
2018-07-03T11:06:55.809Z,0.47
2018-07-03T11:09:00.307Z,0.40
2018-07-03T11:11:04.788Z,0.60
2018-07-03T11:13:09.274Z,0.60
2018-07-03T11:15:13.703Z,0.65
2018-07-03T11:17:18.744Z,0.40
2018-07-03T11:19:23.293Z,0.40
2018-07-03T11:21:27.753Z,0.40
2018-07-03T11:23:32.179Z,0.33
2018-07-03T11:25:36.606Z,0.50
2018-07-03T11:27:41.152Z,0.60
2018-07-03T11:29:45.659Z,0.30
2018-07-03T11:31:50.201Z,0.50
2018-07-03T11:33:54.636Z,0.40
2018-07-03T11:35:59.135Z,0.40
2018-07-03T11:38:03.622Z,0.34
2018-07-03T11:40:08.142Z,0.43
2018-07-03T11:42:12.648Z,0.40
2018-07-03T11:44:17.083Z,0.53
2018-07-03T11:46:21.588Z,0.53
2018-07-03T11:48:26.157Z,0.50
2018-07-03T11:50:30.760Z,0.63
2018-07-03T11:52:35.580Z,0.60
2018-07-03T11:54:40.023Z,0.80
2018-07-03T11:56:44.750Z,0.33
2018-07-03T11:58:49.222Z,0.30
2018-07-03T12:00:53.695Z,0.47
2018-07-03T12:02:59.228Z,0.47
2018-07-03T12:05:03.778Z,0.60
2018-07-03T12:07:08.317Z,0.50
2018-07-03T12:09:12.779Z,0.30
2018-07-03T12:11:17.271Z,0.40
2018-07-03T12:13:21.832Z,0.40
2018-07-03T12:15:26.262Z,0.30
2018-07-03T12:17:31.021Z,0.50
2018-07-03T12:19:35.629Z,0.60
2018-07-03T12:21:40.064Z,0.70
2018-07-03T12:23:44.591Z,0.40
2018-07-03T12:25:49.064Z,0.65
2018-07-03T12:27:53.642Z,0.40
2018-07-03T12:29:59.306Z,0.40
2018-07-03T12:32:03.838Z,0.50
2018-07-03T12:34:08.286Z,0.37
2018-07-03T12:36:12.962Z,0.70
2018-07-03T12:38:17.446Z,0.57
2018-07-03T12:40:21.928Z,0.40
2018-07-03T12:42:26.417Z,0.50
2018-07-03T12:44:30.926Z,0.50
2018-07-03T12:46:35.408Z,0.37
2018-07-03T12:48:39.955Z,0.53
2018-07-03T12:50:44.503Z,0.36
2018-07-03T12:52:49.033Z,0.40
2018-07-03T12:54:53.530Z,0.70
2018-07-03T12:56:58.668Z,0.50
2018-07-03T12:59:03.215Z,0.53
2018-07-03T13:01:07.759Z,0.30
2018-07-03T13:03:12.231Z,0.77
2018-07-03T13:05:16.781Z,0.70
2018-07-03T13:07:21.270Z,0.40
2018-07-03T13:09:25.799Z,0.50
2018-07-03T13:11:30.229Z,0.63
2018-07-03T13:13:34.779Z,0.42
2018-07-03T13:15:40.443Z,0.70
2018-07-03T13:17:45.006Z,0.30
2018-07-03T13:19:49.479Z,0.53
2018-07-03T13:21:53.971Z,0.60
2018-07-03T13:23:58.505Z,0.60
2018-07-03T13:26:03.066Z,0.40
2018-07-03T13:28:07.615Z,0.47
2018-07-03T13:30:12.064Z,0.50
2018-07-03T13:32:16.562Z,0.60
2018-07-03T13:34:21.130Z,0.60
2018-07-03T13:36:25.740Z,0.53
2018-07-03T13:38:30.323Z,0.53
2018-07-03T13:40:34.902Z,0.68
2018-07-03T13:42:39.706Z,0.37
2018-07-03T13:44:44.171Z,0.60
2018-07-03T13:46:48.587Z,0.50
2018-07-03T13:48:53.111Z,0.60
2018-07-03T13:50:57.569Z,0.80
2018-07-03T13:53:02.119Z,0.82
2018-07-03T13:55:06.961Z,0.70
2018-07-03T13:57:11.386Z,0.60
2018-07-03T13:59:15.900Z,0.42
2018-07-03T14:01:20.104Z,0.55
2018-07-03T14:03:24.505Z,0.50
2018-07-03T14:05:28.975Z,0.50
2018-07-03T14:07:33.449Z,0.60
2018-07-03T14:09:37.943Z,0.42
2018-07-03T14:11:42.437Z,0.40
2018-07-03T14:13:46.915Z,0.60
2018-07-03T14:15:51.439Z,0.50
2018-07-03T14:17:56.250Z,0.50
2018-07-03T14:20:01.126Z,0.50
2018-07-03T14:22:05.585Z,0.70
2018-07-03T14:24:10.127Z,0.60
2018-07-03T14:26:14.611Z,0.50
2018-07-03T14:28:20.156Z,0.60
2018-07-03T14:30:24.710Z,0.60
2018-07-03T14:32:29.159Z,0.70
2018-07-03T14:34:33.631Z,0.70
2018-07-03T14:36:38.079Z,0.60
2018-07-03T14:38:42.539Z,0.60
2018-07-03T14:40:47.065Z,0.60
2018-07-03T14:42:51.522Z,0.50
2018-07-03T14:44:56.023Z,0.50
2018-07-03T14:47:00.486Z,0.68
2018-07-03T14:49:05.393Z,0.50
2018-07-03T14:51:09.889Z,0.43
2018-07-03T14:53:14.331Z,0.73
2018-07-03T14:55:18.794Z,0.50
2018-07-03T14:57:23.310Z,0.80
2018-07-03T14:59:27.759Z,0.65
2018-07-03T15:01:32.202Z,0.50
2018-07-03T15:03:36.717Z,0.60
2018-07-03T15:05:41.178Z,0.82
2018-07-03T15:07:45.916Z,0.42
2018-07-03T15:09:50.083Z,0.90
2018-07-03T15:11:54.490Z,0.47
2018-07-03T15:13:59.047Z,0.72
2018-07-03T15:16:03.572Z,0.40
2018-07-03T15:18:12.531Z,0.50
2018-07-03T15:20:18.175Z,0.40
2018-07-03T15:22:22.600Z,0.60
2018-07-03T15:24:27.098Z,0.50
2018-07-03T15:26:31.604Z,0.70
2018-07-03T15:28:36.092Z,0.50
2018-07-03T15:30:40.894Z,0.45
2018-07-03T15:32:45.408Z,0.65
2018-07-03T15:34:49.888Z,0.40
2018-07-03T15:36:54.462Z,0.60
2018-07-03T15:39:00.740Z,0.40
2018-07-03T15:41:05.284Z,0.68
2018-07-03T15:43:09.791Z,0.30
2018-07-03T15:45:15.134Z,0.50
2018-07-03T15:47:19.589Z,0.50
2018-07-03T15:49:24.050Z,0.50
2018-07-03T15:51:29.152Z,0.50
2018-07-03T15:53:33.670Z,0.40
2018-07-03T15:55:38.181Z,0.83
2018-07-03T15:57:42.619Z,0.57
2018-07-03T15:59:47.162Z,0.40
2018-07-03T16:01:51.478Z,0.68
2018-07-03T16:04:12.799Z,0.37
2018-07-03T16:06:34.205Z,0.40
2018-07-03T16:09:17.088Z,0.40
2018-07-03T16:11:21.899Z,0.57
2018-07-03T16:13:26.825Z,0.47
2018-07-03T16:15:31.401Z,0.55
2018-07-03T16:17:36.013Z,0.30
2018-07-03T16:19:46.846Z,0.55
2018-07-03T16:21:51.629Z,0.35
2018-07-03T16:23:58.168Z,0.50
2018-07-03T16:26:02.828Z,0.45
2018-07-03T16:28:07.589Z,0.40
2018-07-03T16:30:13.398Z,0.43
2018-07-03T16:32:17.797Z,0.70
2018-07-03T16:34:22.612Z,0.50
2018-07-03T16:36:27.250Z,0.50
2018-07-03T16:38:31.926Z,0.40
2018-07-03T16:40:36.429Z,0.43
2018-07-03T16:42:42.413Z,0.54
2018-07-03T16:44:48.004Z,0.34
2018-07-03T16:46:52.652Z,0.30
2018-07-03T16:48:57.241Z,0.40
2018-07-03T16:51:03.311Z,0.68
2018-07-03T16:53:07.846Z,0.50
2018-07-03T16:55:12.505Z,0.50
2018-07-03T16:57:17.577Z,0.50
2018-07-03T16:59:22.078Z,0.50
2018-07-03T17:01:26.634Z,0.70
2018-07-03T17:03:32.143Z,0.47
2018-07-03T17:05:37.838Z,0.57
2018-07-03T17:07:42.337Z,0.50
2018-07-03T17:09:47.803Z,1.20
2018-07-03T17:11:52.895Z,0.80
2018-07-03T17:13:57.698Z,0.50
2018-07-03T17:16:02.336Z,1.00
2018-07-03T17:18:06.879Z,0.78
2018-07-03T17:20:11.294Z,0.50
2018-07-03T17:22:15.900Z,0.47
2018-07-03T17:24:20.370Z,0.40
2018-07-03T17:26:24.899Z,0.40
2018-07-03T17:28:29.381Z,0.50
2018-07-03T17:30:33.791Z,0.55
2018-07-03T17:32:38.585Z,0.70
2018-07-03T17:34:43.214Z,0.40
2018-07-03T17:36:47.380Z,0.50
2018-07-03T17:38:51.992Z,0.50
2018-07-03T17:41:13.317Z,0.42
2018-07-03T17:44:05.321Z,0.40
2018-07-03T17:46:11.017Z,0.47
2018-07-03T17:48:16.477Z,0.40
2018-07-03T17:50:20.946Z,0.50
2018-07-03T17:52:25.785Z,0.47
2018-07-03T17:54:30.404Z,0.53
2018-07-03T17:56:35.180Z,0.50
2018-07-03T17:58:39.656Z,0.37
2018-07-03T18:00:44.247Z,0.40
2018-07-03T18:02:49.312Z,0.50
2018-07-03T18:04:53.794Z,0.43
2018-07-03T18:06:58.765Z,0.30
2018-07-03T18:09:04.371Z,0.30
2018-07-03T18:11:09.261Z,0.60
2018-07-03T18:13:13.881Z,0.68
2018-07-03T18:15:18.411Z,0.60
2018-07-03T18:17:23.588Z,0.46
2018-07-03T18:19:33.361Z,0.30
2018-07-03T18:21:37.906Z,0.50
2018-07-03T18:23:43.347Z,0.82
2018-07-03T18:25:47.830Z,0.50
2018-07-03T18:27:52.908Z,0.63
2018-07-03T18:29:57.810Z,0.53
2018-07-03T18:32:03.395Z,0.40
2018-07-03T18:34:07.840Z,0.40
2018-07-03T18:36:12.360Z,0.50
2018-07-03T18:38:17.158Z,0.60
2018-07-03T18:40:22.244Z,0.60
2018-07-03T18:42:26.753Z,0.43
2018-07-03T18:44:31.226Z,0.50
2018-07-03T18:46:36.022Z,0.60
2018-07-03T18:48:40.554Z,0.40
2018-07-03T18:50:45.088Z,0.60
2018-07-03T18:52:49.555Z,0.57
2018-07-03T18:54:54.139Z,0.40
2018-07-03T18:57:01.135Z,0.60
2018-07-03T18:59:06.070Z,0.40
2018-07-03T19:01:10.990Z,0.50
2018-07-03T19:03:15.513Z,0.40
2018-07-03T19:05:20.796Z,0.57
2018-07-03T19:07:25.271Z,0.50
2018-07-03T19:09:30.118Z,0.50
2018-07-03T19:11:34.768Z,0.78
2018-07-03T19:13:39.282Z,0.73
2018-07-03T19:15:44.501Z,0.60
2018-07-03T19:17:49.026Z,0.60
2018-07-03T19:19:54.094Z,0.80
2018-07-03T19:21:58.761Z,0.60
2018-07-03T19:24:04.223Z,1.00
2018-07-03T19:26:09.094Z,0.90
2018-07-03T19:28:13.710Z,1.30
2018-07-03T19:30:18.304Z,1.20
2018-07-03T19:32:22.866Z,0.80
2018-07-03T19:34:27.376Z,0.90
2018-07-03T19:36:32.285Z,1.20
2018-07-03T19:38:36.784Z,0.80
2018-07-03T19:40:41.277Z,0.80
2018-07-03T19:43:31.960Z,0.70
2018-07-03T19:45:36.429Z,0.70
2018-07-03T19:47:41.000Z,0.90
2018-07-03T19:49:46.024Z,0.67
2018-07-03T19:51:50.514Z,0.70
2018-07-03T19:53:55.011Z,0.60
2018-07-03T19:56:00.501Z,0.70
2018-07-03T19:58:05.461Z,0.70
2018-07-03T20:00:09.811Z,0.60
2018-07-03T20:02:15.303Z,0.60
2018-07-03T20:04:20.622Z,0.60
2018-07-03T20:06:25.382Z,0.63
2018-07-03T20:08:29.858Z,0.70
2018-07-03T20:10:34.489Z,0.80
2018-07-03T20:12:38.957Z,0.60
2018-07-03T20:14:43.400Z,0.70
2018-07-03T20:16:47.894Z,0.70
2018-07-03T20:18:52.415Z,0.57
2018-07-03T20:20:57.135Z,0.40
2018-07-03T20:23:05.410Z,0.50
2018-07-03T20:25:11.739Z,0.70
2018-07-03T20:27:19.180Z,0.60
2018-07-03T20:29:23.994Z,0.70
2018-07-03T20:31:30.447Z,0.60
2018-07-03T20:33:35.115Z,0.50
2018-07-03T20:35:39.579Z,0.63
2018-07-03T20:37:55.570Z,0.80
2018-07-03T20:40:00.026Z,0.40
2018-07-03T20:42:05.303Z,0.50
2018-07-03T20:44:09.804Z,0.50
2018-07-03T20:46:16.609Z,0.40
2018-07-03T20:48:23.097Z,0.50
2018-07-03T20:50:27.526Z,0.50
2018-07-03T20:52:33.441Z,0.70
2018-07-03T20:54:37.955Z,0.53
2018-07-03T20:56:42.404Z,0.50
2018-07-03T20:58:46.857Z,0.67
2018-07-03T21:00:53.740Z,0.70
2018-07-03T21:02:58.169Z,0.50
2018-07-03T21:05:02.746Z,0.50
2018-07-03T21:07:06.834Z,0.50
2018-07-03T21:09:11.657Z,0.60
2018-07-03T21:11:16.112Z,0.72
2018-07-03T21:13:20.567Z,0.65
2018-07-03T21:15:25.798Z,0.67
2018-07-03T21:17:30.326Z,0.70
2018-07-03T21:19:34.756Z,0.60
2018-07-03T21:21:39.231Z,0.75
2018-07-03T21:23:43.776Z,0.57
2018-07-03T21:25:48.230Z,0.67
2018-07-03T21:27:52.682Z,0.80
2018-07-03T21:29:57.166Z,0.60
2018-07-03T21:32:01.952Z,0.57
2018-07-03T21:34:06.707Z,0.43
2018-07-03T21:36:11.441Z,0.90
2018-07-03T21:38:15.971Z,0.50
2018-07-03T21:40:20.461Z,0.80
2018-07-03T21:42:26.102Z,0.60
2018-07-03T21:44:30.595Z,0.70
2018-07-03T21:46:35.045Z,0.80
2018-07-03T21:48:39.489Z,0.93
2018-07-03T21:50:43.931Z,0.67
2018-07-03T21:52:48.366Z,0.40
2018-07-03T21:54:52.845Z,0.50
2018-07-03T21:56:57.296Z,0.80
2018-07-03T21:59:01.774Z,0.50
2018-07-03T22:01:06.382Z,0.70
2018-07-03T22:03:11.906Z,0.60
2018-07-03T22:05:16.441Z,0.57
2018-07-03T22:07:20.885Z,0.50
2018-07-03T22:09:26.450Z,0.70
2018-07-03T22:11:30.889Z,0.70
2018-07-03T22:13:35.341Z,0.60
2018-07-03T22:15:40.798Z,0.60
2018-07-03T22:17:45.258Z,0.67
2018-07-03T22:19:49.738Z,0.53
2018-07-03T22:21:54.514Z,0.60
2018-07-03T22:23:59.158Z,0.60
2018-07-03T22:26:03.601Z,0.60
2018-07-03T22:28:08.017Z,0.70
2018-07-03T22:30:12.179Z,0.60
2018-07-03T22:32:16.599Z,0.70
2018-07-03T22:34:21.113Z,0.67
2018-07-03T22:36:26.638Z,0.70
2018-07-03T22:38:31.330Z,0.53
2018-07-03T22:40:35.798Z,0.60
2018-07-03T22:42:40.223Z,0.60
2018-07-03T22:44:44.787Z,0.80
2018-07-03T22:46:49.611Z,0.70
2018-07-03T22:48:54.051Z,0.63
2018-07-03T22:50:58.515Z,0.95
2018-07-03T22:53:02.935Z,0.67
2018-07-03T22:55:09.184Z,0.80
2018-07-03T22:57:13.644Z,0.70
2018-07-03T22:59:18.058Z,0.60
2018-07-03T23:01:22.535Z,0.70
2018-07-03T23:03:27.306Z,0.80
2018-07-03T23:05:31.806Z,1.00
2018-07-03T23:07:36.289Z,0.70
2018-07-03T23:09:41.098Z,0.70
2018-07-03T23:11:45.660Z,0.60
2018-07-03T23:13:50.157Z,0.70
2018-07-03T23:15:54.614Z,0.62
2018-07-03T23:17:59.115Z,0.60
2018-07-03T23:20:03.631Z,0.50
2018-07-03T23:22:08.072Z,0.70
2018-07-03T23:24:12.710Z,0.80
2018-07-03T23:26:17.609Z,0.65
2018-07-03T23:28:22.010Z,0.83
2018-07-03T23:30:27.793Z,0.60
2018-07-03T23:32:32.244Z,0.73
2018-07-03T23:34:36.693Z,0.90
2018-07-03T23:38:48.694Z,0.70
2018-07-03T23:40:53.273Z,0.73
2018-07-03T23:42:57.722Z,0.72
2018-07-03T23:45:02.153Z,0.80
2018-07-03T23:47:24.637Z,0.90
2018-07-03T23:49:45.943Z,0.70
2018-07-03T23:52:07.282Z,0.60
2018-07-03T23:54:28.666Z,0.97
2018-07-03T23:56:50.088Z,0.67
2018-07-03T23:59:11.270Z,0.80
